createdAt,value
2019-04-06T00:00:09.677Z,0.00
2019-04-06T00:01:09.668Z,0.00
2019-04-06T00:02:09.672Z,0.00
2019-04-06T00:03:09.648Z,0.00
2019-04-06T00:04:09.644Z,0.00
2019-04-06T00:05:09.674Z,0.00
2019-04-06T00:06:09.634Z,0.00
2019-04-06T00:07:09.629Z,0.00
2019-04-06T00:08:09.608Z,0.00
2019-04-06T00:09:09.601Z,0.00
2019-04-06T00:10:09.599Z,0.00
2019-04-06T00:11:09.594Z,0.00
2019-04-06T00:12:09.576Z,0.00
2019-04-06T00:13:09.565Z,0.00
2019-04-06T00:14:09.559Z,0.00
2019-04-06T00:15:09.553Z,0.00
2019-04-06T00:16:09.542Z,0.00
2019-04-06T00:17:09.542Z,0.00
2019-04-06T00:18:09.532Z,0.00
2019-04-06T00:19:09.509Z,0.00
2019-04-06T00:20:09.502Z,0.00
2019-04-06T00:21:09.526Z,0.00
2019-04-06T00:22:09.489Z,0.00
2019-04-06T00:23:09.483Z,0.00
2019-04-06T00:24:09.478Z,0.00
2019-04-06T00:25:09.463Z,0.00
2019-04-06T00:26:09.452Z,0.00
2019-04-06T00:27:09.448Z,0.00
2019-04-06T00:28:09.483Z,0.00
2019-04-06T00:29:09.431Z,0.00
2019-04-06T00:30:09.429Z,0.00
2019-04-06T00:31:09.412Z,0.00
2019-04-06T00:32:09.395Z,0.00
2019-04-06T00:33:09.409Z,0.00
2019-04-06T00:34:09.405Z,0.00
2019-04-06T00:35:09.371Z,0.00
2019-04-06T00:36:09.364Z,0.00
2019-04-06T00:37:09.360Z,0.00
2019-04-06T00:38:09.349Z,0.00
2019-04-06T00:39:09.340Z,0.00
2019-04-06T00:40:09.337Z,0.00
2019-04-06T00:41:09.341Z,0.00
2019-04-06T00:42:09.345Z,0.00
2019-04-06T00:43:09.304Z,0.00
2019-04-06T00:44:09.362Z,0.00
2019-04-06T00:45:09.285Z,0.00
2019-04-06T00:46:09.277Z,0.00
2019-04-06T00:47:09.274Z,0.00
2019-04-06T00:48:09.264Z,0.00
2019-04-06T00:49:09.249Z,0.00
2019-04-06T00:50:09.243Z,0.00
2019-04-06T00:51:09.254Z,0.00
2019-04-06T00:52:09.235Z,0.00
2019-04-06T00:53:09.217Z,0.00
2019-04-06T00:54:09.208Z,0.00
2019-04-06T00:55:09.192Z,0.00
2019-04-06T00:56:09.191Z,0.00
2019-04-06T00:57:09.205Z,0.00
2019-04-06T00:58:09.167Z,0.00
2019-04-06T00:59:09.159Z,0.00
2019-04-06T01:00:09.181Z,0.00
2019-04-06T01:01:09.145Z,0.00
2019-04-06T01:02:09.132Z,0.00
2019-04-06T01:03:09.132Z,0.00
2019-04-06T01:04:09.118Z,0.00
2019-04-06T01:05:09.122Z,0.00
2019-04-06T01:06:09.179Z,0.00
2019-04-06T01:07:09.098Z,0.00
2019-04-06T01:08:09.079Z,0.00
2019-04-06T01:09:09.155Z,0.00
2019-04-06T01:10:09.061Z,0.00
2019-04-06T01:11:09.057Z,0.00
2019-04-06T01:12:09.037Z,0.00
2019-04-06T01:13:09.031Z,0.00
2019-04-06T01:14:09.020Z,0.00
2019-04-06T01:15:09.009Z,0.00
2019-04-06T01:16:09.005Z,0.00
2019-04-06T01:17:08.989Z,0.00
2019-04-06T01:18:08.988Z,0.00
2019-04-06T01:19:08.983Z,0.00
2019-04-06T01:20:09.045Z,0.00
2019-04-06T01:21:08.958Z,0.00
2019-04-06T01:22:08.946Z,0.00
2019-04-06T01:23:08.957Z,0.00
2019-04-06T01:24:08.934Z,0.00
2019-04-06T01:25:08.930Z,0.00
2019-04-06T01:26:08.941Z,0.00
2019-04-06T01:27:08.899Z,0.00
2019-04-06T01:28:08.953Z,0.00
2019-04-06T01:29:08.883Z,0.00
2019-04-06T01:30:08.882Z,0.00
2019-04-06T01:31:08.869Z,0.00
2019-04-06T01:32:08.856Z,0.00
2019-04-06T01:33:08.884Z,0.00
2019-04-06T01:34:08.838Z,0.00
2019-04-06T01:35:08.831Z,0.00
2019-04-06T01:36:08.817Z,0.00
2019-04-06T01:37:08.838Z,0.00
2019-04-06T01:38:08.797Z,0.00
2019-04-06T01:39:08.818Z,0.00
2019-04-06T01:40:08.782Z,0.00
2019-04-06T01:41:08.831Z,0.00
2019-04-06T01:42:08.781Z,0.00
2019-04-06T01:43:08.757Z,0.00
2019-04-06T01:44:08.746Z,0.00
2019-04-06T01:45:08.738Z,0.00
2019-04-06T01:46:08.732Z,0.00
2019-04-06T01:47:08.735Z,0.00
2019-04-06T01:48:08.735Z,0.00
2019-04-06T01:49:08.705Z,0.00
2019-04-06T01:50:08.698Z,0.00
2019-04-06T01:51:08.703Z,0.00
2019-04-06T01:52:08.894Z,0.00
2019-04-06T01:53:08.662Z,0.00
2019-04-06T01:54:08.734Z,0.00
2019-04-06T01:55:08.661Z,0.00
2019-04-06T01:56:17.970Z,0.00
2019-04-06T01:57:08.734Z,0.00
2019-04-06T01:58:08.623Z,0.00
2019-04-06T01:59:08.639Z,0.00
2019-04-06T02:00:08.597Z,0.00
2019-04-06T02:01:08.595Z,0.00
2019-04-06T02:02:08.596Z,0.00
2019-04-06T02:03:08.576Z,0.00
2019-04-06T02:04:08.581Z,0.00
2019-04-06T02:05:08.563Z,0.00
2019-04-06T02:06:08.567Z,0.00
2019-04-06T02:07:08.537Z,0.00
2019-04-06T02:08:17.205Z,0.00
2019-04-06T02:10:13.017Z,0.00
2019-04-06T02:11:12.983Z,0.00
2019-04-06T02:12:12.977Z,0.00
2019-04-06T02:13:21.599Z,0.00
2019-04-06T02:15:16.959Z,0.00
2019-04-06T02:16:16.935Z,0.00
2019-04-06T02:18:10.463Z,0.00
2019-04-06T02:19:10.353Z,0.00
2019-04-06T02:20:10.339Z,0.00
2019-04-06T02:21:10.321Z,0.00
2019-04-06T02:22:10.309Z,0.00
2019-04-06T02:23:10.301Z,0.00
2019-04-06T02:24:10.298Z,0.00
2019-04-06T02:25:10.288Z,0.00
2019-04-06T02:26:10.277Z,0.00
2019-04-06T02:27:10.258Z,0.00
2019-04-06T02:28:10.247Z,0.00
2019-04-06T02:29:10.239Z,0.00
2019-04-06T02:30:10.320Z,0.00
2019-04-06T02:31:10.231Z,0.00
2019-04-06T02:32:10.209Z,0.00
2019-04-06T02:33:10.202Z,0.00
2019-04-06T02:34:10.191Z,0.00
2019-04-06T02:35:10.182Z,0.00
2019-04-06T02:36:10.176Z,0.00
2019-04-06T02:37:10.247Z,0.00
2019-04-06T02:38:10.157Z,0.00
2019-04-06T02:39:10.151Z,0.00
2019-04-06T02:40:10.133Z,0.00
2019-04-06T02:41:10.130Z,0.00
2019-04-06T02:42:10.117Z,0.00
2019-04-06T02:43:10.119Z,0.00
2019-04-06T02:44:10.104Z,0.00
2019-04-06T02:45:10.309Z,0.00
2019-04-06T02:46:10.082Z,0.00
2019-04-06T02:47:10.078Z,0.00
2019-04-06T02:48:10.068Z,0.00
2019-04-06T02:49:10.053Z,0.00
2019-04-06T02:50:10.042Z,0.00
2019-04-06T02:51:10.030Z,0.00
2019-04-06T02:52:10.028Z,0.00
2019-04-06T02:53:10.060Z,0.00
2019-04-06T02:54:09.999Z,0.00
2019-04-06T03:10:29.634Z,0.00
2019-04-06T03:11:29.605Z,0.00
2019-04-06T03:12:29.588Z,0.00
2019-04-06T03:13:29.579Z,0.00
2019-04-06T03:14:29.731Z,0.00
2019-04-06T03:15:29.573Z,0.00
2019-04-06T03:16:29.536Z,0.00
2019-04-06T03:17:29.524Z,0.00
2019-04-06T03:18:29.510Z,0.00
2019-04-06T03:19:29.496Z,0.00
2019-04-06T03:20:29.528Z,0.00
2019-04-06T03:21:29.501Z,0.00
2019-04-06T03:22:29.461Z,0.00
2019-04-06T03:23:29.469Z,0.00
2019-04-06T03:24:29.442Z,0.00
2019-04-06T03:25:29.440Z,0.00
2019-04-06T03:26:29.425Z,0.00
2019-04-06T03:27:29.642Z,0.00
2019-04-06T03:28:29.401Z,0.00
2019-04-06T03:29:29.392Z,0.00
2019-04-06T03:30:29.402Z,0.00
2019-04-06T03:31:29.458Z,0.00
2019-04-06T03:32:29.371Z,0.00
2019-04-06T03:33:29.375Z,0.00
2019-04-06T03:34:29.348Z,0.00
2019-04-06T03:35:29.739Z,0.00
2019-04-06T03:36:29.319Z,0.00
2019-04-06T03:37:29.524Z,0.00
2019-04-06T03:38:29.419Z,0.00
2019-04-06T03:39:29.286Z,0.00
2019-04-06T03:40:29.274Z,0.00
2019-04-06T03:41:29.270Z,0.00
2019-04-06T03:42:29.279Z,0.00
2019-04-06T03:43:29.318Z,0.00
2019-04-06T03:44:29.239Z,0.00
2019-04-06T03:45:29.375Z,0.00
2019-04-06T03:46:29.287Z,0.00
2019-04-06T03:47:29.366Z,0.00
2019-04-06T03:48:29.200Z,0.00
2019-04-06T03:49:29.191Z,0.00
2019-04-06T03:50:29.184Z,0.00
2019-04-06T03:51:29.169Z,0.00
2019-04-06T03:52:29.157Z,0.00
2019-04-06T03:53:29.148Z,0.00
2019-04-06T03:54:29.137Z,0.00
2019-04-06T03:55:29.359Z,0.00
2019-04-06T03:56:29.128Z,0.00
2019-04-06T03:57:29.190Z,0.00
2019-04-06T03:58:29.181Z,0.00
2019-04-06T03:59:29.088Z,0.00
2019-04-06T04:00:29.154Z,0.00
2019-04-06T04:01:29.065Z,0.00
2019-04-06T04:02:29.063Z,0.00
2019-04-06T04:03:29.052Z,0.00
2019-04-06T04:04:29.029Z,0.00
2019-04-06T04:05:29.036Z,0.00
2019-04-06T04:06:29.055Z,0.00
2019-04-06T04:07:29.017Z,0.00
2019-04-06T04:08:29.010Z,0.00
2019-04-06T04:09:28.985Z,0.00
2019-04-06T04:10:28.970Z,0.00
2019-04-06T04:11:28.965Z,0.00
2019-04-06T04:12:28.957Z,0.00
2019-04-06T04:13:29.067Z,0.00
2019-04-06T04:14:28.944Z,0.00
2019-04-06T04:15:29.245Z,0.00
2019-04-06T04:16:28.911Z,0.00
2019-04-06T04:17:28.916Z,0.00
2019-04-06T04:18:28.929Z,0.00
2019-04-06T04:19:28.881Z,0.00
2019-04-06T04:20:28.891Z,0.00
2019-04-06T04:21:28.863Z,0.00
2019-04-06T04:22:28.852Z,0.00
2019-04-06T04:23:28.845Z,0.00
2019-04-06T04:24:28.837Z,0.00
2019-04-06T04:25:28.817Z,0.00
2019-04-06T04:26:28.872Z,4.00
2019-04-06T04:27:30.523Z,0.00
2019-04-06T04:28:28.784Z,4.00
2019-04-06T04:29:28.783Z,4.00
2019-04-06T04:30:32.873Z,4.00
2019-04-06T04:31:28.764Z,4.00
2019-04-06T04:32:28.886Z,8.00
2019-04-06T04:33:28.744Z,8.00
2019-04-06T04:34:28.724Z,8.00
2019-04-06T04:35:28.721Z,8.00
2019-04-06T04:36:28.941Z,12.00
2019-04-06T04:37:28.735Z,12.00
2019-04-06T04:38:28.683Z,16.00
2019-04-06T04:39:28.682Z,16.00
2019-04-06T04:40:28.707Z,24.00
2019-04-06T04:41:28.656Z,24.00
2019-04-06T04:42:28.641Z,28.00
2019-04-06T04:43:28.806Z,36.00
2019-04-06T04:44:28.641Z,40.00
2019-04-06T04:45:29.063Z,44.00
2019-04-06T04:46:28.598Z,52.00
2019-04-06T04:47:28.623Z,56.00
2019-04-06T04:48:28.577Z,60.00
2019-04-06T04:49:28.568Z,68.00
2019-04-06T04:50:28.595Z,76.00
2019-04-06T04:51:28.549Z,84.00
2019-04-06T04:52:28.595Z,96.00
2019-04-06T04:53:28.525Z,104.00
2019-04-06T04:54:28.514Z,112.00
2019-04-06T04:55:28.514Z,128.00
2019-04-06T04:56:28.505Z,136.00
2019-04-06T04:57:39.578Z,148.00
2019-04-06T04:58:28.475Z,164.00
2019-04-06T04:59:28.459Z,176.00
2019-04-06T05:00:28.449Z,188.00
2019-04-06T05:01:28.467Z,204.00
2019-04-06T05:02:28.436Z,220.00
2019-04-06T05:03:28.427Z,244.00
2019-04-06T05:04:28.534Z,268.00
2019-04-06T05:05:28.394Z,292.00
2019-04-06T05:06:28.383Z,312.00
2019-04-06T05:07:28.377Z,344.00
2019-04-06T05:08:28.368Z,372.00
2019-04-06T05:09:28.357Z,404.00
2019-04-06T05:10:28.354Z,436.00
2019-04-06T05:11:28.333Z,468.00
2019-04-06T05:12:28.325Z,500.00
2019-04-06T05:13:28.316Z,536.00
2019-04-06T05:14:28.303Z,576.00
2019-04-06T05:15:28.297Z,616.00
2019-04-06T05:16:28.291Z,660.00
2019-04-06T05:17:28.279Z,704.00
2019-04-06T05:18:28.286Z,748.00
2019-04-06T05:19:28.271Z,792.00
2019-04-06T05:20:28.265Z,836.00
2019-04-06T05:21:28.288Z,876.00
2019-04-06T05:22:28.221Z,912.00
2019-04-06T05:23:28.214Z,948.00
2019-04-06T05:24:28.204Z,1024.00
2019-04-06T05:25:28.190Z,1184.00
2019-04-06T05:26:37.140Z,1852.00
2019-04-06T05:27:28.167Z,2856.00
2019-04-06T05:28:28.162Z,1596.00
2019-04-06T05:29:28.156Z,1644.00
2019-04-06T05:30:28.148Z,1788.00
2019-04-06T05:31:28.131Z,1980.00
2019-04-06T05:32:28.120Z,2076.00
2019-04-06T05:33:28.119Z,2252.00
2019-04-06T05:34:28.121Z,3752.00
2019-04-06T05:35:28.090Z,6048.00
2019-04-06T05:36:28.098Z,16064.00
2019-04-06T05:37:28.210Z,19200.00
2019-04-06T05:38:28.057Z,16416.00
2019-04-06T05:39:28.050Z,15488.00
2019-04-06T05:40:28.047Z,18304.00
2019-04-06T05:41:28.039Z,22848.00
2019-04-06T05:42:28.031Z,27200.00
2019-04-06T05:43:28.021Z,29152.00
2019-04-06T05:44:28.010Z,29824.00
2019-04-06T05:45:28.182Z,28288.00
2019-04-06T05:46:28.004Z,23776.00
2019-04-06T05:47:27.998Z,13536.00
2019-04-06T05:48:27.987Z,4600.00
2019-04-06T05:49:27.988Z,3460.00
2019-04-06T05:50:27.974Z,3492.00
2019-04-06T05:51:27.968Z,4300.00
2019-04-06T05:52:28.075Z,14112.00
2019-04-06T05:53:27.956Z,27744.00
2019-04-06T05:54:27.959Z,34496.00
2019-04-06T05:55:27.952Z,35040.00
2019-04-06T05:56:27.945Z,39264.00
2019-04-06T05:57:31.598Z,39520.00
2019-04-06T05:58:27.939Z,33088.00
2019-04-06T05:59:27.955Z,28128.00
2019-04-06T06:00:27.968Z,17024.00
2019-04-06T06:01:27.950Z,6048.00
2019-04-06T06:02:27.993Z,3100.00
2019-04-06T06:03:27.922Z,2536.00
2019-04-06T06:04:28.084Z,2272.00
2019-04-06T06:05:27.906Z,2152.00
2019-04-06T06:06:27.953Z,2120.00
2019-04-06T06:07:27.908Z,2060.00
2019-04-06T06:08:27.897Z,2060.00
2019-04-06T06:09:27.900Z,2152.00
2019-04-06T06:10:27.904Z,2212.00
2019-04-06T06:11:27.878Z,2244.00
2019-04-06T06:12:27.877Z,2252.00
2019-04-06T06:13:27.873Z,2232.00
2019-04-06T06:14:27.871Z,2160.00
2019-04-06T06:15:27.857Z,2156.00
2019-04-06T06:16:27.860Z,2156.00
2019-04-06T06:17:27.862Z,2144.00
2019-04-06T06:18:27.843Z,2148.00
2019-04-06T06:19:27.835Z,2188.00
2019-04-06T06:20:28.027Z,2236.00
2019-04-06T06:21:27.822Z,2304.00
2019-04-06T06:22:27.816Z,2348.00
2019-04-06T06:23:27.805Z,2424.00
2019-04-06T06:24:27.802Z,2428.00
2019-04-06T06:25:27.795Z,2432.00
2019-04-06T06:26:27.895Z,2456.00
2019-04-06T06:27:27.776Z,2432.00
2019-04-06T06:28:27.778Z,2428.00
2019-04-06T06:29:27.763Z,2368.00
2019-04-06T06:30:27.754Z,2456.00
2019-04-06T06:31:27.753Z,2484.00
2019-04-06T06:32:27.755Z,2596.00
2019-04-06T06:33:27.734Z,2580.00
2019-04-06T06:34:27.729Z,2556.00
2019-04-06T06:35:27.731Z,2568.00
2019-04-06T06:36:27.801Z,2440.00
2019-04-06T06:37:27.706Z,2588.00
2019-04-06T06:38:27.695Z,2424.00
2019-04-06T06:39:27.685Z,2400.00
2019-04-06T06:40:27.676Z,2408.00
2019-04-06T06:41:27.667Z,2368.00
2019-04-06T06:42:27.662Z,2452.00
2019-04-06T06:43:27.655Z,2496.00
2019-04-06T06:44:27.645Z,2432.00
2019-04-06T06:45:27.648Z,2476.00
2019-04-06T06:46:27.628Z,2436.00
2019-04-06T06:47:27.622Z,2464.00
2019-04-06T06:48:27.610Z,2452.00
2019-04-06T06:49:27.729Z,2440.00
2019-04-06T06:50:27.624Z,2420.00
2019-04-06T06:51:27.598Z,2388.00
2019-04-06T06:52:27.574Z,2420.00
2019-04-06T06:53:27.568Z,2352.00
2019-04-06T06:54:27.564Z,2204.00
2019-04-06T06:55:27.557Z,2228.00
2019-04-06T06:56:27.613Z,2200.00
2019-04-06T06:57:27.535Z,2184.00
2019-04-06T06:58:27.526Z,2124.00
2019-04-06T06:59:27.754Z,2168.00
2019-04-06T07:00:27.520Z,2152.00
2019-04-06T07:01:27.565Z,2156.00
2019-04-06T07:02:27.502Z,2856.00
2019-04-06T07:03:27.489Z,2884.00
2019-04-06T07:04:27.493Z,2864.00
2019-04-06T07:05:27.469Z,2904.00
2019-04-06T07:06:27.467Z,2832.00
2019-04-06T07:07:27.555Z,2856.00
2019-04-06T07:08:27.580Z,2708.00
2019-04-06T07:09:36.093Z,2812.00
2019-04-06T07:11:31.988Z,2824.00
2019-04-06T07:12:31.893Z,2608.00
2019-04-06T07:13:32.055Z,2772.00
2019-04-06T07:14:31.881Z,2580.00
2019-04-06T07:15:31.863Z,2704.00
2019-04-06T07:16:31.862Z,2740.00
2019-04-06T07:17:32.079Z,2832.00
2019-04-06T07:18:31.870Z,2668.00
2019-04-06T07:19:31.854Z,2748.00
2019-04-06T07:20:31.829Z,2180.00
2019-04-06T07:21:31.819Z,2368.00
2019-04-06T07:22:31.831Z,2636.00
2019-04-06T07:23:31.870Z,2260.00
2019-04-06T07:24:31.799Z,2428.00
2019-04-06T07:25:31.791Z,2508.00
2019-04-06T07:26:31.808Z,2524.00
2019-04-06T07:27:31.772Z,2640.00
2019-04-06T07:28:37.468Z,2520.00
2019-04-06T07:29:31.755Z,2540.00
2019-04-06T07:30:31.748Z,2428.00
2019-04-06T07:31:31.816Z,2620.00
2019-04-06T07:32:31.730Z,2624.00
2019-04-06T07:33:31.747Z,2584.00
2019-04-06T07:34:31.716Z,2600.00
2019-04-06T07:35:31.706Z,2572.00
2019-04-06T07:36:31.713Z,2532.00
2019-04-06T07:37:31.701Z,2420.00
2019-04-06T07:38:31.860Z,2540.00
2019-04-06T07:39:31.671Z,2464.00
2019-04-06T07:40:31.664Z,2480.00
2019-04-06T07:41:31.839Z,2180.00
2019-04-06T07:42:31.646Z,2392.00
2019-04-06T07:43:31.642Z,2104.00
2019-04-06T07:44:31.672Z,2276.00
2019-04-06T07:45:31.626Z,2196.00
2019-04-06T07:46:31.631Z,1964.00
2019-04-06T07:47:31.612Z,1964.00
2019-04-06T07:48:31.595Z,2188.00
2019-04-06T07:49:31.615Z,2048.00
2019-04-06T07:50:31.610Z,2128.00
2019-04-06T07:51:31.594Z,1892.00
2019-04-06T07:52:31.573Z,2084.00
2019-04-06T07:53:31.631Z,1916.00
2019-04-06T07:54:31.553Z,2172.00
2019-04-06T07:55:31.668Z,2116.00
2019-04-06T07:56:31.545Z,2084.00
2019-04-06T07:57:31.524Z,1856.00
2019-04-06T07:58:31.520Z,2040.00
2019-04-06T07:59:31.526Z,2080.00
2019-04-06T08:00:31.596Z,2012.00
2019-04-06T08:01:31.493Z,2116.00
2019-04-06T08:02:31.584Z,2100.00
2019-04-06T08:03:31.619Z,1816.00
2019-04-06T08:04:31.472Z,2092.00
2019-04-06T08:05:31.461Z,2016.00
2019-04-06T08:06:31.677Z,2012.00
2019-04-06T08:07:31.452Z,1932.00
2019-04-06T08:08:31.480Z,2076.00
2019-04-06T08:09:31.477Z,1880.00
2019-04-06T08:10:31.437Z,1980.00
2019-04-06T08:11:31.419Z,1856.00
2019-04-06T08:12:31.416Z,2024.00
2019-04-06T08:13:31.646Z,1892.00
2019-04-06T08:14:31.414Z,1948.00
2019-04-06T08:15:31.380Z,1992.00
2019-04-06T08:16:31.394Z,2084.00
2019-04-06T08:17:31.472Z,2148.00
2019-04-06T08:18:31.411Z,1840.00
2019-04-06T08:19:31.353Z,2028.00
2019-04-06T08:20:31.539Z,2040.00
2019-04-06T08:21:31.343Z,2140.00
2019-04-06T08:22:31.341Z,1916.00
2019-04-06T08:23:31.345Z,1864.00
2019-04-06T08:24:31.315Z,1956.00
2019-04-06T08:25:31.365Z,1560.00
2019-04-06T08:26:31.325Z,1952.00
2019-04-06T08:27:31.313Z,1700.00
2019-04-06T08:28:31.298Z,1964.00
2019-04-06T08:29:31.301Z,2060.00
2019-04-06T08:30:31.284Z,1772.00
2019-04-06T08:31:31.280Z,1580.00
2019-04-06T08:32:31.259Z,1792.00
2019-04-06T08:33:31.282Z,1876.00
2019-04-06T08:34:31.265Z,1544.00
2019-04-06T08:35:31.442Z,1796.00
2019-04-06T08:36:31.369Z,1624.00
2019-04-06T08:37:31.274Z,1836.00
2019-04-06T08:38:31.478Z,1808.00
2019-04-06T08:39:31.232Z,1856.00
2019-04-06T08:40:31.225Z,1872.00
2019-04-06T08:41:31.204Z,1812.00
2019-04-06T08:42:31.203Z,1896.00
2019-04-06T08:43:31.185Z,1768.00
2019-04-06T08:44:31.214Z,1664.00
2019-04-06T08:45:31.178Z,1884.00
2019-04-06T08:46:31.374Z,1860.00
2019-04-06T08:47:31.156Z,1692.00
2019-04-06T08:48:31.148Z,1700.00
2019-04-06T08:49:31.149Z,1656.00
2019-04-06T08:50:31.296Z,1692.00
2019-04-06T08:51:31.126Z,1608.00
2019-04-06T08:52:31.151Z,1760.00
2019-04-06T08:53:31.130Z,1852.00
2019-04-06T08:54:31.121Z,1844.00
2019-04-06T08:55:31.201Z,1684.00
2019-04-06T08:56:31.099Z,1868.00
2019-04-06T08:57:31.109Z,1828.00
2019-04-06T08:58:31.302Z,1728.00
2019-04-06T08:59:31.103Z,1788.00
2019-04-06T09:00:31.089Z,1596.00
2019-04-06T09:01:31.138Z,1808.00
2019-04-06T09:02:31.067Z,1844.00
2019-04-06T09:03:31.262Z,1780.00
2019-04-06T09:04:31.089Z,1744.00
2019-04-06T09:05:31.171Z,1772.00
2019-04-06T09:06:31.082Z,1756.00
2019-04-06T09:07:31.045Z,1824.00
2019-04-06T09:08:31.070Z,1676.00
2019-04-06T09:09:31.078Z,1748.00
2019-04-06T09:10:31.051Z,1308.00
2019-04-06T09:11:31.043Z,1528.00
2019-04-06T09:12:31.002Z,1596.00
2019-04-06T09:13:31.061Z,1388.00
2019-04-06T09:14:31.005Z,1268.00
2019-04-06T09:15:31.145Z,1636.00
2019-04-06T09:16:30.986Z,1572.00
2019-04-06T09:17:31.128Z,1696.00
2019-04-06T09:18:30.975Z,1580.00
2019-04-06T09:19:30.996Z,1404.00
2019-04-06T09:20:30.969Z,1568.00
2019-04-06T09:21:30.981Z,1560.00
2019-04-06T09:22:30.956Z,1500.00
2019-04-06T09:23:31.067Z,1516.00
2019-04-06T09:24:31.238Z,1620.00
2019-04-06T09:25:30.950Z,1632.00
2019-04-06T09:26:30.986Z,1516.00
2019-04-06T09:27:30.927Z,1560.00
2019-04-06T09:28:30.954Z,1492.00
2019-04-06T09:29:30.944Z,1600.00
2019-04-06T09:30:30.958Z,1584.00
2019-04-06T09:31:30.922Z,1496.00
2019-04-06T09:32:30.957Z,1572.00
2019-04-06T09:33:30.959Z,1436.00
2019-04-06T09:34:31.319Z,1532.00
2019-04-06T09:35:30.884Z,1572.00
2019-04-06T09:36:30.871Z,1488.00
2019-04-06T09:37:31.112Z,1552.00
2019-04-06T09:38:30.903Z,1472.00
2019-04-06T09:39:30.877Z,1512.00
2019-04-06T09:40:31.055Z,1472.00
2019-04-06T09:41:30.847Z,1480.00
2019-04-06T09:42:30.879Z,1244.00
2019-04-06T09:43:30.881Z,1396.00
2019-04-06T09:44:30.843Z,1408.00
2019-04-06T09:45:30.858Z,1420.00
2019-04-06T09:46:30.875Z,1312.00
2019-04-06T09:47:30.825Z,1276.00
2019-04-06T09:48:30.829Z,1252.00
2019-04-06T09:49:30.832Z,1196.00
2019-04-06T09:50:30.985Z,1368.00
2019-04-06T09:51:30.800Z,1344.00
2019-04-06T09:52:30.811Z,1400.00
2019-04-06T09:53:33.173Z,1324.00
2019-04-06T09:54:30.789Z,1324.00
2019-04-06T09:55:30.779Z,1336.00
2019-04-06T09:56:30.781Z,1276.00
2019-04-06T09:57:30.777Z,1344.00
2019-04-06T09:58:30.921Z,1440.00
2019-04-06T09:59:35.973Z,1616.00
2019-04-06T10:00:31.032Z,1272.00
2019-04-06T10:01:37.944Z,1396.00
2019-04-06T10:02:30.742Z,1336.00
2019-04-06T10:03:30.772Z,1468.00
2019-04-06T10:04:31.070Z,1264.00
2019-04-06T10:05:30.865Z,1324.00
2019-04-06T10:06:32.288Z,1460.00
2019-04-06T10:07:30.749Z,1372.00
2019-04-06T10:08:30.744Z,1328.00
2019-04-06T10:09:30.710Z,1508.00
2019-04-06T10:10:30.708Z,1488.00
2019-04-06T10:11:30.697Z,1424.00
2019-04-06T10:12:30.703Z,1496.00
2019-04-06T10:13:30.897Z,1484.00
2019-04-06T10:14:30.885Z,1480.00
2019-04-06T10:15:30.703Z,1352.00
2019-04-06T10:16:30.691Z,1480.00
2019-04-06T10:17:30.702Z,1488.00
2019-04-06T10:18:30.672Z,1548.00
2019-04-06T10:19:30.663Z,1508.00
2019-04-06T10:20:30.666Z,1528.00
2019-04-06T10:21:30.786Z,1396.00
2019-04-06T10:22:30.668Z,1428.00
2019-04-06T10:23:30.677Z,1308.00
2019-04-06T10:24:30.745Z,1528.00
2019-04-06T10:25:30.646Z,1340.00
2019-04-06T10:26:30.637Z,1456.00
2019-04-06T10:27:30.658Z,1440.00
2019-04-06T10:28:30.862Z,1484.00
2019-04-06T10:29:30.750Z,1452.00
2019-04-06T10:30:30.623Z,1412.00
2019-04-06T10:31:30.627Z,1384.00
2019-04-06T10:32:30.626Z,1432.00
2019-04-06T10:33:30.598Z,1420.00
2019-04-06T10:34:30.607Z,1344.00
2019-04-06T10:35:30.615Z,1396.00
2019-04-06T10:36:31.870Z,1488.00
2019-04-06T10:37:30.584Z,1360.00
2019-04-06T10:38:30.633Z,1356.00
2019-04-06T10:39:30.594Z,1404.00
2019-04-06T10:40:30.600Z,1328.00
2019-04-06T10:41:30.573Z,1364.00
2019-04-06T10:42:30.839Z,1348.00
2019-04-06T10:43:30.574Z,1284.00
2019-04-06T10:44:30.567Z,1292.00
2019-04-06T10:45:30.588Z,1368.00
2019-04-06T10:46:30.571Z,1424.00
2019-04-06T10:47:30.613Z,1152.00
2019-04-06T10:48:30.543Z,1156.00
2019-04-06T10:49:30.547Z,1156.00
2019-04-06T10:50:30.535Z,1204.00
2019-04-06T10:51:30.534Z,1228.00
2019-04-06T10:52:30.539Z,1336.00
2019-04-06T10:53:30.554Z,1148.00
2019-04-06T10:54:30.525Z,1008.00
2019-04-06T10:55:30.548Z,1224.00
2019-04-06T10:56:30.514Z,996.00
2019-04-06T10:57:30.550Z,1092.00
2019-04-06T10:58:30.501Z,1192.00
2019-04-06T10:59:30.730Z,1100.00
2019-04-06T11:00:30.504Z,1204.00
2019-04-06T11:01:30.495Z,1164.00
2019-04-06T11:02:30.494Z,1208.00
2019-04-06T11:03:39.142Z,1188.00
2019-04-06T11:05:43.945Z,1156.00
2019-04-06T11:06:43.590Z,1200.00
2019-04-06T11:08:39.436Z,1172.00
2019-04-06T11:09:39.412Z,1240.00
2019-04-06T11:10:39.409Z,1256.00
2019-04-06T11:11:39.677Z,1088.00
2019-04-06T11:12:39.406Z,1180.00
2019-04-06T11:13:39.643Z,1188.00
2019-04-06T11:14:39.397Z,1176.00
2019-04-06T11:15:39.651Z,1060.00
2019-04-06T11:16:39.665Z,1184.00
2019-04-06T11:17:39.688Z,1124.00
2019-04-06T11:18:39.559Z,1204.00
2019-04-06T11:19:39.370Z,1116.00
2019-04-06T11:20:39.380Z,1088.00
2019-04-06T11:21:39.387Z,1204.00
2019-04-06T11:22:39.381Z,1232.00
2019-04-06T11:23:39.359Z,1264.00
2019-04-06T11:24:39.361Z,1196.00
2019-04-06T11:25:39.351Z,1352.00
2019-04-06T11:26:39.368Z,1472.00
2019-04-06T11:27:39.349Z,1212.00
2019-04-06T11:28:39.453Z,1424.00
2019-04-06T11:29:39.342Z,1428.00
2019-04-06T11:30:39.522Z,1332.00
2019-04-06T11:31:39.372Z,1332.00
2019-04-06T11:32:39.330Z,1264.00
2019-04-06T11:33:39.320Z,1572.00
2019-04-06T11:34:39.876Z,1588.00
2019-04-06T11:35:39.313Z,1532.00
2019-04-06T11:36:39.318Z,1424.00
2019-04-06T11:37:39.335Z,1520.00
2019-04-06T11:38:39.304Z,1504.00
2019-04-06T11:39:39.302Z,1380.00
2019-04-06T11:40:39.297Z,1464.00
2019-04-06T11:41:39.303Z,1508.00
2019-04-06T11:42:39.482Z,1428.00
2019-04-06T11:43:39.285Z,1376.00
2019-04-06T11:44:39.329Z,1524.00
2019-04-06T11:45:39.342Z,1324.00
2019-04-06T11:46:39.291Z,1304.00
2019-04-06T11:47:39.296Z,1272.00
2019-04-06T11:48:39.264Z,1204.00
2019-04-06T11:49:39.268Z,1160.00
2019-04-06T11:50:39.276Z,1184.00
2019-04-06T11:51:39.252Z,1144.00
2019-04-06T11:52:39.387Z,1148.00
2019-04-06T11:53:39.499Z,1224.00
2019-04-06T11:54:39.255Z,1204.00
2019-04-06T11:55:39.427Z,1304.00
2019-04-06T11:56:39.382Z,1404.00
2019-04-06T11:57:39.488Z,1376.00
2019-04-06T11:58:39.272Z,1224.00
2019-04-06T11:59:39.258Z,1328.00
2019-04-06T12:00:39.229Z,1352.00
2019-04-06T12:01:39.232Z,1180.00
2019-04-06T12:02:39.226Z,1528.00
2019-04-06T12:03:39.215Z,1520.00
2019-04-06T12:04:39.229Z,1520.00
2019-04-06T12:05:39.222Z,1604.00
2019-04-06T12:06:39.385Z,1616.00
2019-04-06T12:07:39.223Z,1740.00
2019-04-06T12:08:39.294Z,1684.00
2019-04-06T12:09:39.202Z,1636.00
2019-04-06T12:10:39.201Z,1660.00
2019-04-06T12:11:39.214Z,1640.00
2019-04-06T12:12:39.511Z,1740.00
2019-04-06T12:13:39.204Z,1604.00
2019-04-06T12:14:39.191Z,1600.00
2019-04-06T12:15:39.186Z,1640.00
2019-04-06T12:16:39.205Z,1492.00
2019-04-06T12:17:39.200Z,1380.00
2019-04-06T12:18:39.234Z,1404.00
2019-04-06T12:19:39.175Z,1504.00
2019-04-06T12:20:39.378Z,1468.00
2019-04-06T12:21:39.493Z,1484.00
2019-04-06T12:22:39.178Z,1476.00
2019-04-06T12:23:39.179Z,1468.00
2019-04-06T12:24:39.162Z,1396.00
2019-04-06T12:25:39.219Z,1420.00
2019-04-06T12:26:39.443Z,1392.00
2019-04-06T12:27:39.151Z,1480.00
2019-04-06T12:28:39.189Z,1500.00
2019-04-06T12:29:39.493Z,1488.00
2019-04-06T12:30:39.396Z,1448.00
2019-04-06T12:31:39.147Z,1668.00
2019-04-06T12:32:39.142Z,1564.00
2019-04-06T12:33:39.146Z,1624.00
2019-04-06T12:34:39.265Z,1652.00
2019-04-06T12:35:39.429Z,1560.00
2019-04-06T12:36:39.130Z,1604.00
2019-04-06T12:37:39.125Z,1612.00
2019-04-06T12:38:39.368Z,1576.00
2019-04-06T12:39:50.665Z,1472.00
2019-04-06T12:40:39.146Z,1384.00
2019-04-06T12:41:39.394Z,1436.00
2019-04-06T12:42:39.383Z,1468.00
2019-04-06T12:43:39.123Z,1368.00
2019-04-06T12:44:39.124Z,1320.00
2019-04-06T12:45:39.137Z,1336.00
2019-04-06T12:46:39.106Z,1260.00
2019-04-06T12:47:39.135Z,1196.00
2019-04-06T12:48:39.302Z,1188.00
2019-04-06T12:49:39.103Z,1184.00
2019-04-06T12:50:39.093Z,1160.00
2019-04-06T12:51:39.097Z,1236.00